Here is the Quick Look data you requested

The Data originates at the National Weather Service, and is made available here by the UAlbany Department of Atmospheric and Environmental Sciences

Surface Observations

KSFQ 151855Z AUTO 21005KT 10SM CLR 34/23 A2996 RMK AO2 T03410225=
KSFQ 151915Z AUTO 19004KT 10SM CLR 34/22 A2995 RMK AO2 T03410215=
KSFQ 151935Z AUTO 22007KT 10SM CLR 35/22 A2994 RMK AO2 T03450219=
KSFQ 151955Z AUTO 15003KT 10SM CLR 35/21 A2994 RMK AO2 T03470211=
KSFQ 152015Z AUTO 11003KT 10SM CLR 35/23 A2993 RMK AO2 T03450226=
KSFQ 152035Z AUTO 18003KT 10SM CLR 35/23 A2993 RMK AO2 T03460230=
KSFQ 152055Z AUTO 17006KT 10SM CLR 35/23 A2992 RMK AO2 T03480228=
KSFQ 152115Z AUTO 24005KT 10SM CLR 35/22 A2993 RMK AO2 T03490218=
KSFQ 152135Z AUTO 18005KT 10SM CLR 34/24 A2992 RMK AO2 T03400237=
KSFQ 152155Z AUTO 18005KT 10SM CLR 34/24 A2991 RMK AO2 T03370239=
KSFQ 152215Z AUTO 18004KT 10SM CLR 34/25 A2990 RMK AO2 T03370245=
KSFQ 152235Z AUTO 17004KT 10SM CLR 33/25 A2990 RMK AO2 T03320246=
KSFQ 152255Z AUTO 15003KT 10SM CLR 33/25 A2990 RMK AO2 T03290254=
KSFQ 152315Z AUTO 17003KT 10SM CLR 33/26 A2991 RMK AO2 T03250257=
KSFQ 152335Z AUTO 19003KT 10SM CLR 32/26 A2992 RMK AO2 T03230257=
KSFQ 152355Z AUTO 00000KT 10SM CLR 32/26 A2992 RMK AO2 T03150262 10350 20315=
KSFQ 160015Z AUTO 16003KT 10SM CLR 31/26 A2993 RMK AO2 T03090260=
KSFQ 160035Z AUTO 16003KT 10SM SCT003 30/26 A2993 RMK AO2 T03030260=
KSFQ 160055Z AUTO 16004KT 10SM CLR 30/26 A2993 RMK AO2 T03020257=
KSFQ 160115Z AUTO 16005KT 10SM CLR 30/26 A2992 RMK AO2 T02960257=
KSFQ 160135Z AUTO 18005KT 10SM CLR 29/26 A2992 RMK AO2 T02930260=
KSFQ 160155Z AUTO 20005KT 10SM CLR 29/26 A2993 RMK AO2 T02920257=
KSFQ 160215Z AUTO 18004KT 10SM CLR 29/26 A2993 RMK AO2 T02870260=
KSFQ 160235Z AUTO 19005KT 10SM CLR 29/25 A2993 RMK AO2 T02880253=
KSFQ 160255Z AUTO 21006KT 10SM CLR 29/25 A2993 RMK AO2 T02850248=
KSFQ 160315Z AUTO 21005KT 10SM CLR 28/25 A2993 RMK AO2 T02830245=
KSFQ 160335Z AUTO 22005KT 10SM CLR 28/24 A2993 RMK AO2 T02830243=
KSFQ 160355Z AUTO 21005KT 10SM CLR 28/25 A2993 RMK AO2 T02750245=
KSFQ 160415Z AUTO 20005KT 10SM CLR 27/25 A2993 RMK AO2 T02740245=
KSFQ 160435Z AUTO 21005KT 10SM CLR 27/25 A2993 RMK AO2 T02710245=
KSFQ 160455Z AUTO 21005KT 10SM CLR 27/25 A2993 RMK AO2 T02710245 403500240=
KSFQ 160515Z AUTO 22006KT 10SM CLR 27/25 A2993 RMK AO2 T02700245=
KSFQ 160535Z AUTO 23005KT 10SM CLR 27/24 A2992 RMK AO2 T02700242=
KSFQ 160555Z AUTO 23006KT 10SM CLR 27/24 A2991 RMK AO2 T02700235 10315 20269=
KSFQ 160615Z AUTO 22004KT 10SM CLR 27/23 A2991 RMK AO2 T02690230=
KSFQ 160635Z AUTO 19004KT 10SM CLR 26/23 A2991 RMK AO2 T02600230=
KSFQ 160655Z AUTO 20005KT 10SM CLR 26/23 A2991 RMK AO2 T02560232=
KSFQ 160715Z AUTO 21005KT 10SM CLR 26/23 A2991 RMK AO2 T02570230=
KSFQ 160735Z AUTO 20004KT 10SM CLR 26/23 A2991 RMK AO2 T02550228=
KSFQ 160755Z AUTO 22005KT 10SM CLR 25/23 A2991 RMK AO2 T02510226=
KSFQ 160815Z AUTO 22006KT 10SM CLR 25/23 A2992 RMK AO2 T02510225=
KSFQ 160835Z AUTO 20004KT 10SM CLR 25/23 A2993 RMK AO2 T02490225=
KSFQ 160855Z AUTO 21004KT 10SM CLR 24/22 A2993 RMK AO2 T02440224=
KSFQ 160915Z AUTO 21003KT 10SM CLR 24/22 A2993 RMK AO2 T02420224=
KSFQ 160935Z AUTO 23004KT 10SM CLR 25/23 A2994 RMK AO2 T02450225=
KSFQ 160955Z AUTO 20004KT 10SM CLR 24/23 A2994 RMK AO2 T02420225=
KSFQ 161015Z AUTO 21005KT 10SM CLR 24/23 A2995 RMK AO2 T02420226=
KSFQ 161035Z AUTO 21005KT 10SM CLR 25/23 A2995 RMK AO2 T02460228=
KSFQ 161055Z AUTO 20006KT 10SM CLR 25/23 A2994 RMK AO2 T02480230=
KSFQ 161115Z AUTO 20005KT 10SM CLR 25/23 A2994 RMK AO2 T02530232=
KSFQ 161135Z AUTO 20007KT 10SM CLR 26/23 A2995 RMK AO2 T02590233=
KSFQ 161155Z AUTO 22006KT 10SM CLR 26/23 A2995 RMK AO2 T02620232 10270 20240=
KSFQ 161215Z AUTO 20006KT 10SM CLR 26/24 A2995 RMK AO2 T02640236=
KSFQ 161235Z AUTO 21008KT 10SM CLR 28/24 A2996 RMK AO2 T02760239=
KSFQ 161255Z AUTO 19006KT 10SM CLR 28/24 A2995 RMK AO2 T02750238=
KSFQ 161315Z AUTO 21005KT 10SM CLR 28/24 A2995 RMK AO2 T02760241=
KSFQ 161335Z AUTO 20006KT 10SM CLR 28/24 A2995 RMK AO2 T02820242=
KSFQ 161355Z AUTO 22005KT 10SM CLR 29/25 A2995 RMK AO2 T02900245=
KSFQ 161415Z AUTO 19006KT 10SM CLR 29/25 A2995 RMK AO2 T02910246=
KSFQ 161435Z AUTO 19008KT 10SM CLR 30/25 A2995 RMK AO2 T02960245=
KSFQ 161455Z AUTO 19007KT 10SM CLR 30/25 A2995 RMK AO2 T03000252=
KSFQ 161515Z AUTO 21006KT 10SM CLR 30/25 A2995 RMK AO2 T03030254=
KSFQ 161535Z AUTO 19010KT 10SM CLR 31/25 A2996 RMK AO2 T03100251=
KSFQ 161555Z AUTO 19007KT 10SM CLR 32/26 A2995 RMK AO2 T03160255=
KSFQ 161615Z AUTO 21008KT 10SM CLR 32/26 A2995 RMK AO2 T03210255=
KSFQ 161635Z AUTO 23010KT 10SM CLR 33/26 A2994 RMK AO2 T03280258=
KSFQ 161655Z AUTO 21010KT 10SM CLR 33/26 A2993 RMK AO2 T03260255=
KSFQ 161715Z AUTO 20010G14KT 10SM CLR 33/26 A2993 RMK AO2 T03260257=
KSFQ 161735Z AUTO 19011G16KT 10SM SCT030 33/26 A2993 RMK AO2 T03320259=
KSFQ 161755Z AUTO 23011KT 10SM SCT030 34/25 A2992 RMK AO2 T03350253 10335 20260=
KSFQ 161815Z AUTO 19012G17KT 10SM CLR 34/26 A2991 RMK AO2 T03360257=
KSFQ 161835Z AUTO 19011KT 10SM CLR 34/26 A2991 RMK AO2 T03370257=
KSFQ 161855Z AUTO 22011KT 10SM CLR 34/26 A2991 RMK AO2 T03400257=
KSFQ 161915Z AUTO 21008G14KT 10SM SCT038 34/26 A2990 RMK AO2 T03420256=
KSFQ 161935Z AUTO 20012G17KT 10SM SCT038 SCT045 34/25 A2990 RMK AO2 T03430253=

Decoded Surface Observations


The weather observed at SUFFOLK, VA (KSFQ) at 02:55 PM EDT was:
  The skies were clear.
  Temperature: 93F ( 34C)  Dewpoint:  73F ( 23C)  Relative Humidity:  53%
  Winds from the SW (210 degs) at  6 mph.
  Altimeter:29.96 inches of mercury.
  The prevailing visibility was 10 miles.

The weather observed at SUFFOLK, VA (KSFQ) at 03:15 PM EDT was:
  The skies were clear.
  Temperature: 93F ( 34C)  Dewpoint:  72F ( 22C)  Relative Humidity:  50%
  Winds from the S  (190 degs) at  5 mph.
  Altimeter:29.95 inches of mercury.
  The prevailing visibility was 10 miles.

The weather observed at SUFFOLK, VA (KSFQ) at 03:35 PM EDT was:
  The skies were clear.
  Temperature: 95F ( 35C)  Dewpoint:  72F ( 22C)  Relative Humidity:  47%
  Winds from the SW (220 degs) at  8 mph.
  Altimeter:29.94 inches of mercury.
  The prevailing visibility was 10 miles.

The weather observed at SUFFOLK, VA (KSFQ) at 03:55 PM EDT was:
  The skies were clear.
  Temperature: 95F ( 35C)  Dewpoint:  70F ( 21C)  Relative Humidity:  44%
  Winds from the SE (150 degs) at  3 mph.
  Altimeter:29.94 inches of mercury.
  The prevailing visibility was 10 miles.

The weather observed at SUFFOLK, VA (KSFQ) at 04:15 PM EDT was:
  The skies were clear.
  Temperature: 95F ( 35C)  Dewpoint:  73F ( 23C)  Relative Humidity:  50%
  Winds from the ESE(110 degs) at  3 mph.
  Altimeter:29.93 inches of mercury.
  The prevailing visibility was 10 miles.

The weather observed at SUFFOLK, VA (KSFQ) at 04:35 PM EDT was:
  The skies were clear.
  Temperature: 95F ( 35C)  Dewpoint:  73F ( 23C)  Relative Humidity:  50%
  Winds from the S  (180 degs) at  3 mph.
  Altimeter:29.93 inches of mercury.
  The prevailing visibility was 10 miles.

The weather observed at SUFFOLK, VA (KSFQ) at 04:55 PM EDT was:
  The skies were clear.
  Temperature: 95F ( 35C)  Dewpoint:  73F ( 23C)  Relative Humidity:  50%
  Winds from the S  (170 degs) at  7 mph.
  Altimeter:29.92 inches of mercury.
  The prevailing visibility was 10 miles.

The weather observed at SUFFOLK, VA (KSFQ) at 05:15 PM EDT was:
  The skies were clear.
  Temperature: 95F ( 35C)  Dewpoint:  72F ( 22C)  Relative Humidity:  47%
  Winds from the SW (240 degs) at  6 mph.
  Altimeter:29.93 inches of mercury.
  The prevailing visibility was 10 miles.

The weather observed at SUFFOLK, VA (KSFQ) at 05:35 PM EDT was:
  The skies were clear.
  Temperature: 93F ( 34C)  Dewpoint:  75F ( 24C)  Relative Humidity:  56%
  Winds from the S  (180 degs) at  6 mph.
  Altimeter:29.92 inches of mercury.
  The prevailing visibility was 10 miles.

The weather observed at SUFFOLK, VA (KSFQ) at 05:55 PM EDT was:
  The skies were clear.
  Temperature: 93F ( 34C)  Dewpoint:  75F ( 24C)  Relative Humidity:  56%
  Winds from the S  (180 degs) at  6 mph.
  Altimeter:29.91 inches of mercury.
  The prevailing visibility was 10 miles.

The weather observed at SUFFOLK, VA (KSFQ) at 06:15 PM EDT was:
  The skies were clear.
  Temperature: 93F ( 34C)  Dewpoint:  77F ( 25C)  Relative Humidity:  59%
  Winds from the S  (180 degs) at  5 mph.
  Altimeter:29.90 inches of mercury.
  The prevailing visibility was 10 miles.

The weather observed at SUFFOLK, VA (KSFQ) at 06:35 PM EDT was:
  The skies were clear.
  Temperature: 91F ( 33C)  Dewpoint:  77F ( 25C)  Relative Humidity:  63%
  Winds from the S  (170 degs) at  5 mph.
  Altimeter:29.90 inches of mercury.
  The prevailing visibility was 10 miles.

The weather observed at SUFFOLK, VA (KSFQ) at 06:55 PM EDT was:
  The skies were clear.
  Temperature: 91F ( 33C)  Dewpoint:  77F ( 25C)  Relative Humidity:  63%
  Winds from the SE (150 degs) at  3 mph.
  Altimeter:29.90 inches of mercury.
  The prevailing visibility was 10 miles.

The weather observed at SUFFOLK, VA (KSFQ) at 07:15 PM EDT was:
  The skies were clear.
  Temperature: 91F ( 33C)  Dewpoint:  79F ( 26C)  Relative Humidity:  67%
  Winds from the S  (170 degs) at  3 mph.
  Altimeter:29.91 inches of mercury.
  The prevailing visibility was 10 miles.

The weather observed at SUFFOLK, VA (KSFQ) at 07:35 PM EDT was:
  The skies were clear.
  Temperature: 90F ( 32C)  Dewpoint:  79F ( 26C)  Relative Humidity:  71%
  Winds from the S  (190 degs) at  3 mph.
  Altimeter:29.92 inches of mercury.
  The prevailing visibility was 10 miles.

The weather observed at SUFFOLK, VA (KSFQ) at 07:55 PM EDT was:
  The skies were clear.
  Temperature: 89F ( 32C)  Dewpoint:  79F ( 26C)  Relative Humidity:  74%
  Winds from the CLM(CLM degs) at  0 mph.
  Altimeter:29.92 inches of mercury.
  The prevailing visibility was 10 miles.
  The maximum temperature in the past 6 hours was  95F.

The weather observed at SUFFOLK, VA (KSFQ) at 08:15 PM EDT was:
  The skies were clear.
  Temperature: 88F ( 31C)  Dewpoint:  79F ( 26C)  Relative Humidity:  75%
  Winds from the SSE(160 degs) at  3 mph.
  Altimeter:29.93 inches of mercury.
  The prevailing visibility was 10 miles.

The weather observed at SUFFOLK, VA (KSFQ) at 08:35 PM EDT was:
  The skies were partly cloudy.
  Temperature: 86F ( 30C)  Dewpoint:  79F ( 26C)  Relative Humidity:  79%
  Winds from the SSE(160 degs) at  3 mph.
  Altimeter:29.93 inches of mercury.
  The prevailing visibility was 10 miles.

The weather observed at SUFFOLK, VA (KSFQ) at 08:55 PM EDT was:
  The skies were clear.
  Temperature: 86F ( 30C)  Dewpoint:  79F ( 26C)  Relative Humidity:  79%
  Winds from the SSE(160 degs) at  5 mph.
  Altimeter:29.93 inches of mercury.
  The prevailing visibility was 10 miles.

The weather observed at SUFFOLK, VA (KSFQ) at 09:15 PM EDT was:
  The skies were clear.
  Temperature: 86F ( 30C)  Dewpoint:  79F ( 26C)  Relative Humidity:  79%
  Winds from the SSE(160 degs) at  6 mph.
  Altimeter:29.92 inches of mercury.
  The prevailing visibility was 10 miles.

The weather observed at SUFFOLK, VA (KSFQ) at 09:35 PM EDT was:
  The skies were clear.
  Temperature: 84F ( 29C)  Dewpoint:  79F ( 26C)  Relative Humidity:  84%
  Winds from the S  (180 degs) at  6 mph.
  Altimeter:29.92 inches of mercury.
  The prevailing visibility was 10 miles.

The weather observed at SUFFOLK, VA (KSFQ) at 09:55 PM EDT was:
  The skies were clear.
  Temperature: 84F ( 29C)  Dewpoint:  79F ( 26C)  Relative Humidity:  84%
  Winds from the SSW(200 degs) at  6 mph.
  Altimeter:29.93 inches of mercury.
  The prevailing visibility was 10 miles.

The weather observed at SUFFOLK, VA (KSFQ) at 10:15 PM EDT was:
  The skies were clear.
  Temperature: 84F ( 29C)  Dewpoint:  79F ( 26C)  Relative Humidity:  84%
  Winds from the S  (180 degs) at  5 mph.
  Altimeter:29.93 inches of mercury.
  The prevailing visibility was 10 miles.

The weather observed at SUFFOLK, VA (KSFQ) at 10:35 PM EDT was:
  The skies were clear.
  Temperature: 84F ( 29C)  Dewpoint:  77F ( 25C)  Relative Humidity:  79%
  Winds from the S  (190 degs) at  6 mph.
  Altimeter:29.93 inches of mercury.
  The prevailing visibility was 10 miles.

The weather observed at SUFFOLK, VA (KSFQ) at 10:55 PM EDT was:
  The skies were clear.
  Temperature: 84F ( 29C)  Dewpoint:  77F ( 25C)  Relative Humidity:  79%
  Winds from the SW (210 degs) at  7 mph.
  Altimeter:29.93 inches of mercury.
  The prevailing visibility was 10 miles.

The weather observed at SUFFOLK, VA (KSFQ) at 11:15 PM EDT was:
  The skies were clear.
  Temperature: 82F ( 28C)  Dewpoint:  77F ( 25C)  Relative Humidity:  84%
  Winds from the SW (210 degs) at  6 mph.
  Altimeter:29.93 inches of mercury.
  The prevailing visibility was 10 miles.

The weather observed at SUFFOLK, VA (KSFQ) at 11:35 PM EDT was:
  The skies were clear.
  Temperature: 82F ( 28C)  Dewpoint:  75F ( 24C)  Relative Humidity:  79%
  Winds from the SW (220 degs) at  6 mph.
  Altimeter:29.93 inches of mercury.
  The prevailing visibility was 10 miles.

The weather observed at SUFFOLK, VA (KSFQ) at 11:55 PM EDT was:
  The skies were clear.
  Temperature: 82F ( 28C)  Dewpoint:  77F ( 25C)  Relative Humidity:  84%
  Winds from the SW (210 degs) at  6 mph.
  Altimeter:29.93 inches of mercury.
  The prevailing visibility was 10 miles.

The weather observed at SUFFOLK, VA (KSFQ) at 12:15 AM EDT was:
  The skies were clear.
  Temperature: 81F ( 27C)  Dewpoint:  77F ( 25C)  Relative Humidity:  89%
  Winds from the SSW(200 degs) at  6 mph.
  Altimeter:29.93 inches of mercury.
  The prevailing visibility was 10 miles.

The weather observed at SUFFOLK, VA (KSFQ) at 12:35 AM EDT was:
  The skies were clear.
  Temperature: 81F ( 27C)  Dewpoint:  77F ( 25C)  Relative Humidity:  89%
  Winds from the SW (210 degs) at  6 mph.
  Altimeter:29.93 inches of mercury.
  The prevailing visibility was 10 miles.

The weather observed at SUFFOLK, VA (KSFQ) at 12:55 AM EDT was:
  The skies were clear.
  Temperature: 81F ( 27C)  Dewpoint:  76F ( 25C)  Relative Humidity:  86%
  Winds from the SW (210 degs) at  6 mph.
  Altimeter:29.93 inches of mercury.
  The prevailing visibility was 10 miles.

The weather observed at SUFFOLK, VA (KSFQ) at 01:15 AM EDT was:
  The skies were clear.
  Temperature: 81F ( 27C)  Dewpoint:  77F ( 25C)  Relative Humidity:  89%
  Winds from the SW (220 degs) at  7 mph.
  Altimeter:29.93 inches of mercury.
  The prevailing visibility was 10 miles.

The weather observed at SUFFOLK, VA (KSFQ) at 01:35 AM EDT was:
  The skies were clear.
  Temperature: 81F ( 27C)  Dewpoint:  75F ( 24C)  Relative Humidity:  84%
  Winds from the SW (230 degs) at  6 mph.
  Altimeter:29.92 inches of mercury.
  The prevailing visibility was 10 miles.

The weather observed at SUFFOLK, VA (KSFQ) at 01:55 AM EDT was:
  The skies were clear.
  Temperature: 81F ( 27C)  Dewpoint:  74F ( 24C)  Relative Humidity:  81%
  Winds from the SW (230 degs) at  7 mph.
  Altimeter:29.91 inches of mercury.
  The prevailing visibility was 10 miles.
  The maximum temperature in the past 6 hours was  89F.

The weather observed at SUFFOLK, VA (KSFQ) at 02:15 AM EDT was:
  The skies were clear.
  Temperature: 81F ( 27C)  Dewpoint:  73F ( 23C)  Relative Humidity:  79%
  Winds from the SW (220 degs) at  5 mph.
  Altimeter:29.91 inches of mercury.
  The prevailing visibility was 10 miles.

The weather observed at SUFFOLK, VA (KSFQ) at 02:35 AM EDT was:
  The skies were clear.
  Temperature: 79F ( 26C)  Dewpoint:  73F ( 23C)  Relative Humidity:  84%
  Winds from the S  (190 degs) at  5 mph.
  Altimeter:29.91 inches of mercury.
  The prevailing visibility was 10 miles.

The weather observed at SUFFOLK, VA (KSFQ) at 02:55 AM EDT was:
  The skies were clear.
  Temperature: 79F ( 26C)  Dewpoint:  73F ( 23C)  Relative Humidity:  84%
  Winds from the SSW(200 degs) at  6 mph.
  Altimeter:29.91 inches of mercury.
  The prevailing visibility was 10 miles.

The weather observed at SUFFOLK, VA (KSFQ) at 03:15 AM EDT was:
  The skies were clear.
  Temperature: 79F ( 26C)  Dewpoint:  73F ( 23C)  Relative Humidity:  84%
  Winds from the SW (210 degs) at  6 mph.
  Altimeter:29.91 inches of mercury.
  The prevailing visibility was 10 miles.

The weather observed at SUFFOLK, VA (KSFQ) at 03:35 AM EDT was:
  The skies were clear.
  Temperature: 79F ( 26C)  Dewpoint:  73F ( 23C)  Relative Humidity:  84%
  Winds from the SSW(200 degs) at  5 mph.
  Altimeter:29.91 inches of mercury.
  The prevailing visibility was 10 miles.

The weather observed at SUFFOLK, VA (KSFQ) at 03:55 AM EDT was:
  The skies were clear.
  Temperature: 77F ( 25C)  Dewpoint:  73F ( 23C)  Relative Humidity:  89%
  Winds from the SW (220 degs) at  6 mph.
  Altimeter:29.91 inches of mercury.
  The prevailing visibility was 10 miles.

The weather observed at SUFFOLK, VA (KSFQ) at 04:15 AM EDT was:
  The skies were clear.
  Temperature: 77F ( 25C)  Dewpoint:  73F ( 23C)  Relative Humidity:  89%
  Winds from the SW (220 degs) at  7 mph.
  Altimeter:29.92 inches of mercury.
  The prevailing visibility was 10 miles.

The weather observed at SUFFOLK, VA (KSFQ) at 04:35 AM EDT was:
  The skies were clear.
  Temperature: 77F ( 25C)  Dewpoint:  73F ( 23C)  Relative Humidity:  89%
  Winds from the SSW(200 degs) at  5 mph.
  Altimeter:29.93 inches of mercury.
  The prevailing visibility was 10 miles.

The weather observed at SUFFOLK, VA (KSFQ) at 04:55 AM EDT was:
  The skies were clear.
  Temperature: 75F ( 24C)  Dewpoint:  72F ( 22C)  Relative Humidity:  89%
  Winds from the SW (210 degs) at  5 mph.
  Altimeter:29.93 inches of mercury.
  The prevailing visibility was 10 miles.

The weather observed at SUFFOLK, VA (KSFQ) at 05:15 AM EDT was:
  The skies were clear.
  Temperature: 75F ( 24C)  Dewpoint:  72F ( 22C)  Relative Humidity:  89%
  Winds from the SW (210 degs) at  3 mph.
  Altimeter:29.93 inches of mercury.
  The prevailing visibility was 10 miles.

The weather observed at SUFFOLK, VA (KSFQ) at 05:35 AM EDT was:
  The skies were clear.
  Temperature: 77F ( 25C)  Dewpoint:  73F ( 23C)  Relative Humidity:  89%
  Winds from the SW (230 degs) at  5 mph.
  Altimeter:29.94 inches of mercury.
  The prevailing visibility was 10 miles.

The weather observed at SUFFOLK, VA (KSFQ) at 05:55 AM EDT was:
  The skies were clear.
  Temperature: 75F ( 24C)  Dewpoint:  73F ( 23C)  Relative Humidity:  94%
  Winds from the SSW(200 degs) at  5 mph.
  Altimeter:29.94 inches of mercury.
  The prevailing visibility was 10 miles.

The weather observed at SUFFOLK, VA (KSFQ) at 06:15 AM EDT was:
  The skies were clear.
  Temperature: 75F ( 24C)  Dewpoint:  73F ( 23C)  Relative Humidity:  94%
  Winds from the SW (210 degs) at  6 mph.
  Altimeter:29.95 inches of mercury.
  The prevailing visibility was 10 miles.

The weather observed at SUFFOLK, VA (KSFQ) at 06:35 AM EDT was:
  The skies were clear.
  Temperature: 77F ( 25C)  Dewpoint:  73F ( 23C)  Relative Humidity:  89%
  Winds from the SW (210 degs) at  6 mph.
  Altimeter:29.95 inches of mercury.
  The prevailing visibility was 10 miles.

The weather observed at SUFFOLK, VA (KSFQ) at 06:55 AM EDT was:
  The skies were clear.
  Temperature: 77F ( 25C)  Dewpoint:  73F ( 23C)  Relative Humidity:  89%
  Winds from the SSW(200 degs) at  7 mph.
  Altimeter:29.94 inches of mercury.
  The prevailing visibility was 10 miles.

The weather observed at SUFFOLK, VA (KSFQ) at 07:15 AM EDT was:
  The skies were clear.
  Temperature: 77F ( 25C)  Dewpoint:  73F ( 23C)  Relative Humidity:  89%
  Winds from the SSW(200 degs) at  6 mph.
  Altimeter:29.94 inches of mercury.
  The prevailing visibility was 10 miles.

The weather observed at SUFFOLK, VA (KSFQ) at 07:35 AM EDT was:
  The skies were clear.
  Temperature: 79F ( 26C)  Dewpoint:  73F ( 23C)  Relative Humidity:  84%
  Winds from the SSW(200 degs) at  8 mph.
  Altimeter:29.95 inches of mercury.
  The prevailing visibility was 10 miles.

The weather observed at SUFFOLK, VA (KSFQ) at 07:55 AM EDT was:
  The skies were clear.
  Temperature: 79F ( 26C)  Dewpoint:  74F ( 23C)  Relative Humidity:  84%
  Winds from the SW (220 degs) at  7 mph.
  Altimeter:29.95 inches of mercury.
  The prevailing visibility was 10 miles.
  The maximum temperature in the past 6 hours was  81F.

The weather observed at SUFFOLK, VA (KSFQ) at 08:15 AM EDT was:
  The skies were clear.
  Temperature: 79F ( 26C)  Dewpoint:  75F ( 24C)  Relative Humidity:  89%
  Winds from the SSW(200 degs) at  7 mph.
  Altimeter:29.95 inches of mercury.
  The prevailing visibility was 10 miles.

The weather observed at SUFFOLK, VA (KSFQ) at 08:35 AM EDT was:
  The skies were clear.
  Temperature: 82F ( 28C)  Dewpoint:  75F ( 24C)  Relative Humidity:  79%
  Winds from the SW (210 degs) at  9 mph.
  Altimeter:29.96 inches of mercury.
  The prevailing visibility was 10 miles.

The weather observed at SUFFOLK, VA (KSFQ) at 08:55 AM EDT was:
  The skies were clear.
  Temperature: 82F ( 28C)  Dewpoint:  75F ( 24C)  Relative Humidity:  79%
  Winds from the S  (190 degs) at  7 mph.
  Altimeter:29.95 inches of mercury.
  The prevailing visibility was 10 miles.

The weather observed at SUFFOLK, VA (KSFQ) at 09:15 AM EDT was:
  The skies were clear.
  Temperature: 82F ( 28C)  Dewpoint:  75F ( 24C)  Relative Humidity:  79%
  Winds from the SW (210 degs) at  6 mph.
  Altimeter:29.95 inches of mercury.
  The prevailing visibility was 10 miles.

The weather observed at SUFFOLK, VA (KSFQ) at 09:35 AM EDT was:
  The skies were clear.
  Temperature: 82F ( 28C)  Dewpoint:  75F ( 24C)  Relative Humidity:  79%
  Winds from the SSW(200 degs) at  7 mph.
  Altimeter:29.95 inches of mercury.
  The prevailing visibility was 10 miles.

The weather observed at SUFFOLK, VA (KSFQ) at 09:55 AM EDT was:
  The skies were clear.
  Temperature: 84F ( 29C)  Dewpoint:  77F ( 25C)  Relative Humidity:  79%
  Winds from the SW (220 degs) at  6 mph.
  Altimeter:29.95 inches of mercury.
  The prevailing visibility was 10 miles.

The weather observed at SUFFOLK, VA (KSFQ) at 10:15 AM EDT was:
  The skies were clear.
  Temperature: 84F ( 29C)  Dewpoint:  77F ( 25C)  Relative Humidity:  79%
  Winds from the S  (190 degs) at  7 mph.
  Altimeter:29.95 inches of mercury.
  The prevailing visibility was 10 miles.

The weather observed at SUFFOLK, VA (KSFQ) at 10:35 AM EDT was:
  The skies were clear.
  Temperature: 86F ( 30C)  Dewpoint:  77F ( 25C)  Relative Humidity:  75%
  Winds from the S  (190 degs) at  9 mph.
  Altimeter:29.95 inches of mercury.
  The prevailing visibility was 10 miles.

The weather observed at SUFFOLK, VA (KSFQ) at 10:55 AM EDT was:
  The skies were clear.
  Temperature: 86F ( 30C)  Dewpoint:  77F ( 25C)  Relative Humidity:  75%
  Winds from the S  (190 degs) at  8 mph.
  Altimeter:29.95 inches of mercury.
  The prevailing visibility was 10 miles.

The weather observed at SUFFOLK, VA (KSFQ) at 11:15 AM EDT was:
  The skies were clear.
  Temperature: 86F ( 30C)  Dewpoint:  77F ( 25C)  Relative Humidity:  75%
  Winds from the SW (210 degs) at  7 mph.
  Altimeter:29.95 inches of mercury.
  The prevailing visibility was 10 miles.

The weather observed at SUFFOLK, VA (KSFQ) at 11:35 AM EDT was:
  The skies were clear.
  Temperature: 88F ( 31C)  Dewpoint:  77F ( 25C)  Relative Humidity:  70%
  Winds from the S  (190 degs) at 12 mph.
  Altimeter:29.96 inches of mercury.
  The prevailing visibility was 10 miles.

The weather observed at SUFFOLK, VA (KSFQ) at 11:55 AM EDT was:
  The skies were clear.
  Temperature: 90F ( 32C)  Dewpoint:  79F ( 26C)  Relative Humidity:  71%
  Winds from the S  (190 degs) at  8 mph.
  Altimeter:29.95 inches of mercury.
  The prevailing visibility was 10 miles.

The weather observed at SUFFOLK, VA (KSFQ) at 12:15 PM EDT was:
  The skies were clear.
  Temperature: 90F ( 32C)  Dewpoint:  79F ( 26C)  Relative Humidity:  71%
  Winds from the SW (210 degs) at  9 mph.
  Altimeter:29.95 inches of mercury.
  The prevailing visibility was 10 miles.

The weather observed at SUFFOLK, VA (KSFQ) at 12:35 PM EDT was:
  The skies were clear.
  Temperature: 91F ( 33C)  Dewpoint:  79F ( 26C)  Relative Humidity:  67%
  Winds from the SW (230 degs) at 12 mph.
  Altimeter:29.94 inches of mercury.
  The prevailing visibility was 10 miles.

The weather observed at SUFFOLK, VA (KSFQ) at 12:55 PM EDT was:
  The skies were clear.
  Temperature: 91F ( 33C)  Dewpoint:  79F ( 26C)  Relative Humidity:  67%
  Winds from the SW (210 degs) at 12 mph.
  Altimeter:29.93 inches of mercury.
  The prevailing visibility was 10 miles.

The weather observed at SUFFOLK, VA (KSFQ) at 01:15 PM EDT was:
  The skies were clear.
  Temperature: 91F ( 33C)  Dewpoint:  79F ( 26C)  Relative Humidity:  67%
  Winds from the SSW(200 degs) at 12 mph.
  Altimeter:29.93 inches of mercury.
  The prevailing visibility was 10 miles.

The weather observed at SUFFOLK, VA (KSFQ) at 01:35 PM EDT was:
  The skies were partly cloudy.
  Temperature: 91F ( 33C)  Dewpoint:  79F ( 26C)  Relative Humidity:  67%
  Winds from the S  (190 degs) at 13 mph.
  Altimeter:29.93 inches of mercury.
  The prevailing visibility was 10 miles.

The weather observed at SUFFOLK, VA (KSFQ) at 01:55 PM EDT was:
  The skies were partly cloudy.
  Temperature: 92F ( 34C)  Dewpoint:  78F ( 25C)  Relative Humidity:  62%
  Winds from the SW (230 degs) at 13 mph.
  Altimeter:29.92 inches of mercury.
  The prevailing visibility was 10 miles.
  The maximum temperature in the past 6 hours was  92F.

The weather observed at SUFFOLK, VA (KSFQ) at 02:15 PM EDT was:
  The skies were clear.
  Temperature: 93F ( 34C)  Dewpoint:  79F ( 26C)  Relative Humidity:  63%
  Winds from the S  (190 degs) at 14 mph.
  Altimeter:29.91 inches of mercury.
  The prevailing visibility was 10 miles.

The weather observed at SUFFOLK, VA (KSFQ) at 02:35 PM EDT was:
  The skies were clear.
  Temperature: 93F ( 34C)  Dewpoint:  79F ( 26C)  Relative Humidity:  63%
  Winds from the S  (190 degs) at 13 mph.
  Altimeter:29.91 inches of mercury.
  The prevailing visibility was 10 miles.

The weather observed at SUFFOLK, VA (KSFQ) at 02:55 PM EDT was:
  The skies were clear.
  Temperature: 93F ( 34C)  Dewpoint:  79F ( 26C)  Relative Humidity:  63%
  Winds from the SW (220 degs) at 13 mph.
  Altimeter:29.91 inches of mercury.
  The prevailing visibility was 10 miles.

The weather observed at SUFFOLK, VA (KSFQ) at 03:15 PM EDT was:
  The skies were partly cloudy.
  Temperature: 93F ( 34C)  Dewpoint:  79F ( 26C)  Relative Humidity:  63%
  Winds from the SW (210 degs) at  9 mph.
  Altimeter:29.90 inches of mercury.
  The prevailing visibility was 10 miles.

The weather observed at SUFFOLK, VA (KSFQ) at 03:35 PM EDT was:
  The skies were partly cloudy.
  Temperature: 93F ( 34C)  Dewpoint:  77F ( 25C)  Relative Humidity:  59%
  Winds from the SSW(200 degs) at 14 mph.
  Altimeter:29.90 inches of mercury.
  The prevailing visibility was 10 miles.

Short Range Forecast

Sorry no data found for sfq
Make sure sfq is a valid station
You might need to specify a nearby major city
Try Again

Zone Forecast

VAZ087-170200-
Greensville-
Including the city of Emporia
245 PM EDT Tue Jul 16 2024

...HEAT ADVISORY REMAINS IN EFFECT UNTIL 8 PM EDT THIS EVENING...
...HEAT ADVISORY IN EFFECT FROM 11 AM TO 8 PM EDT WEDNESDAY...

.THIS AFTERNOON...Partly sunny with a slight chance of showers
and thunderstorms. Highs in the upper 90s. Southwest winds around
10 mph. Chance of rain 20 percent. Heat index values up to 109.
.TONIGHT...Partly cloudy. A slight chance of showers and
thunderstorms in the evening. Humid with lows in the upper 70s.
Southwest winds 5 to 10 mph. Chance of rain 20 percent. Heat
index values up to 106 early in the evening.
.WEDNESDAY...Partly sunny. A chance of showers and thunderstorms
in the afternoon. Hot with highs in the mid 90s. Southwest winds
5 to 10 mph. Gusts up to 20 mph in the afternoon. Chance of rain
50 percent. Heat index values up to 108.
.WEDNESDAY NIGHT...Mostly cloudy. Showers and thunderstorms
likely, mainly in the evening. Humid with lows in the lower 70s.
Southwest winds 5 to 10 mph. Chance of rain 60 percent. Heat
index values up to 100 early in the evening.
.THURSDAY...Mostly cloudy. A chance of showers and thunderstorms
in the morning, then showers and thunderstorms likely in the
afternoon. Humid with highs in the upper 80s. Southwest winds
around 5 mph, becoming northwest in the afternoon. Chance of rain
70 percent.
.THURSDAY NIGHT...Thunderstorms likely. Showers likely, mainly in
the evening. Lows in the upper 60s. Chance of rain 70 percent.
.FRIDAY...Mostly cloudy. A chance of showers and thunderstorms in
the afternoon. Highs in the mid 80s. Chance of rain 40 percent.
.FRIDAY NIGHT...A chance of thunderstorms in the evening. Mostly
cloudy with a chance of showers. Lows in the upper 60s. Chance of
rain 50 percent.
.SATURDAY...Mostly cloudy with a chance of showers. A chance of
thunderstorms in the afternoon. Highs in the mid 80s. Chance of
rain 50 percent.
.SATURDAY NIGHT...Mostly cloudy with a chance of showers and
thunderstorms. Lows around 70. Chance of rain 50 percent.
.SUNDAY...Mostly cloudy with a chance of showers. A chance of
thunderstorms in the afternoon. Highs in the upper 80s. Chance of
rain 50 percent.
.SUNDAY NIGHT...Mostly cloudy with a chance of showers and
thunderstorms. Lows around 70. Chance of rain 50 percent.
.MONDAY...Mostly cloudy. A chance of showers in the morning, then
showers and thunderstorms likely in the afternoon. Highs in the
mid 80s. Chance of rain 60 percent.


State Forecast

Sorry no data found for sfq
Make sure sfq is a valid station
You might need to specify a nearby major city
Try Again

State Forecast Discussion

Sorry no data found for sfq
Make sure sfq is a valid station
You might need to specify a nearby major city
Try Again

GFS Short-Range Model Output Statistics (MOS) Forecast

KSFQ   GFS MOS GUIDANCE    7/16/2024  1200 UTC
DT /JULY 16/JULY 17                /JULY 18                /JULY 19
HR   18 21 00 03 06 09 12 15 18 21 00 03 06 09 12 15 18 21 00 06 12
N/X                    79          95          76          86    69
TMP  94 97 90 84 82 81 83 89 93 91 85 80 78 77 78 81 83 81 77 71 73
DPT  73 72 75 75 75 75 76 76 75 75 77 76 75 75 75 74 74 74 74 71 72
CLD  CL SC BK BK SC SC BK SC BK BK OV OV OV OV OV OV OV OV OV OV OV
WDR  22 22 20 20 21 21 21 22 22 20 20 22 21 23 24 27 35 01 05 00 02
WSP  10 12 08 08 06 06 08 11 13 12 10 06 06 04 03 03 03 04 05 00 02
P06         2     2     9    11    46    41    29    35    61 45 20
P12                     9          46          59          67    48
Q06         0     0     0     0     2     1     0     1     5  1  0
Q12                     0           1           2           5     1
T06     25/21 14/10  2/ 1  8/ 2 46/21 28/ 7 17/ 0 26/ 0 46/ 9  9/ 0
T12           31/21        8/ 3       55/22       34/ 2    49/ 9
CIG   8  8  8  8  8  8  8  8  8  8  8  7  8  3  3  4  5  6  4  4  6
VIS   7  7  7  7  7  7  7  7  7  7  7  7  7  7  7  7  7  7  5  5  7
OBV   N  N  N  N  N  N  N  N  N  N  N  N  N  N  N  N  N  N BR BR  N

GFS Long-Range Model Output Statistics (MOS) Forecast

KSFQ   GFSX MOS GUIDANCE   7/16/2024  1200 UTC
FHR  24  36| 48  60| 72  84| 96 108|120 132|144 156|168 180|192
     WED 17| THU 18| FRI 19| SAT 20| SUN 21| MON 22| TUE 23|WED CLIMO
N/X  79  95| 76  86| 69  88| 69  87| 72  91| 74  89| 72  90| 73 68 88
TMP  83  85| 78  77| 73  80| 75  78| 77  82| 77  81| 76  82| 77
DPT  76  77| 75  74| 72  70| 73  72| 75  74| 75  74| 73  74| 74
CLD  OV  OV| OV  OV| OV  OV| OV  OV| OV  OV| OV  OV| PC  PC| PC
WND   8  13| 10   5|  5   5|  2   5|  2   5|  4   5|  3   7|  4
P12   9  46| 59  67| 48  32| 24  48| 31  39| 41  39| 36  33| 26999999
P24      46|     84|     56|     49|     55|     58|     56|      999
Q12   0   1|  2   5|  1   0|  0   2|  0   1|  3   4|       |
Q24       1|      5|      1|      1|      2|      4|       |
T12  14  46| 35  54| 27  26| 14  36| 25  43| 26  39| 23  34| 19
T24        | 58    | 54    | 28    | 46    | 53    | 42    | 34

NGM Model Output Statistics (MOS) Forecast

Climatological Summary

Sorry no data found for sfq
Make sure sfq is a valid station
You might need to specify a nearby major city
Try Again

Watch and Warning Statment

Sorry no data found for sfq
Make sure sfq is a valid station
You might need to specify a nearby major city
or it could be THERE ARE NO WATCHES OR WARNINGS for sfq
Try Again

Park/Ski Recreation Report/Forecast

Sorry no data found for sfq
Make sure sfq is a valid station
You might need to specify a nearby major city
Try Again